Time;durP1;ratioP1;P1;durP2;ratioP2;P2;SDS_P1;SDS_P2;PMS_P1;PMS_P2;Temp;Humidity;BMP_temperature;BMP_pressure;BME280_temperature;BME280_humidity;BME280_pressure;Samples;Min_cycle;Max_cycle;Signal;HPM_P1;HPM_P2
2022/03/09 00:00:05;;;;;;;26.45;12.63;;;;;;;-0.38;52.14;99742.78;5174643;28;20060;-66
2022/03/09 00:02:55;;;;;;;29.60;13.55;;;;;;;-0.30;51.85;99735.50;5179934;28;20057;-65
2022/03/09 00:05:46;;;;;;;35.85;14.40;;;;;;;-0.27;52.40;99735.41;5167139;28;20054;-66
2022/03/09 00:08:36;;;;;;;32.28;13.65;;;;;;;0.06;52.09;99732.41;5175385;28;20061;-67
2022/03/09 00:11:26;;;;;;;31.20;13.40;;;;;;;0.41;50.87;99742.31;5178800;28;20105;-66
2022/03/09 00:14:16;;;;;;;29.55;13.52;;;;;;;-0.14;51.55;99722.75;5181782;28;20566;-66
2022/03/09 00:17:07;;;;;;;30.58;12.70;;;;;;;-0.17;52.90;99741.97;5162920;28;20180;-67
2022/03/09 00:19:57;;;;;;;23.58;12.32;;;;;;;-0.27;50.86;99731.03;5163698;28;20057;-67
2022/03/09 00:22:50;;;;;;;28.40;12.75;;;;;;;0.15;50.41;99727.69;5167428;28;20415;-67
2022/03/09 00:25:41;;;;;;;27.52;12.23;;;;;;;0.69;48.60;99742.00;5168292;28;20069;-67
2022/03/09 00:28:32;;;;;;;30.60;11.63;;;;;;;0.07;50.45;99721.94;5177143;28;20057;-67
2022/03/09 00:31:25;;;;;;;30.63;12.70;;;;;;;-0.12;51.38;99744.41;5193808;28;20057;-67
2022/03/09 00:34:15;;;;;;;27.95;11.60;;;;;;;-0.39;51.60;99735.88;5188288;28;20042;-67
2022/03/09 00:37:05;;;;;;;27.63;12.23;;;;;;;-0.30;51.20;99739.00;5172994;28;20064;-67
2022/03/09 00:39:56;;;;;;;27.45;12.55;;;;;;;-0.26;52.00;99747.53;5170423;28;20053;-67
2022/03/09 00:42:46;;;;;;;23.83;11.90;;;;;;;-0.19;51.28;99756.81;5181569;28;20120;-67
2022/03/09 00:45:36;;;;;;;25.42;11.05;;;;;;;-0.10;51.36;99751.28;5193976;28;20060;-67
2022/03/09 00:48:27;;;;;;;26.55;12.25;;;;;;;-0.08;51.32;99752.03;5175819;28;20080;-67
2022/03/09 00:51:16;;;;;;;25.20;12.10;;;;;;;-0.21;50.32;99743.00;5168067;28;20054;-67
2022/03/09 00:54:07;;;;;;;24.50;11.05;;;;;;;-0.30;51.04;99735.50;5177873;28;20052;-67
2022/03/09 00:57:00;;;;;;;;;;;;;;;-0.51;52.05;99758.84;5173710;28;20535;-68
2022/03/09 00:59:50;;;;;;;27.00;12.15;;;;;;;-0.51;52.69;99751.03;5162364;28;19932;-67
2022/03/09 01:02:42;;;;;;;33.15;14.95;;;;;;;-0.76;55.50;99726.78;5161981;28;20512;-67
2022/03/09 01:05:32;;;;;;;35.45;16.48;;;;;;;-0.59;54.60;99755.69;5157384;28;20058;-67
2022/03/09 01:08:22;;;;;;;33.10;15.07;;;;;;;-0.68;54.53;99753.41;5187943;28;20058;-67
2022/03/09 01:11:12;;;;;;;34.35;15.18;;;;;;;-0.67;53.92;99757.69;5156704;28;20046;-67
2022/03/09 01:14:05;;;;;;;37.97;16.23;;;;;;;-0.80;54.55;99746.84;5161641;28;20050;-67
2022/03/09 01:16:55;;;;;;;43.08;16.35;;;;;;;-0.83;54.32;99748.72;5169282;28;20050;-67
2022/03/09 01:19:46;;;;;;;34.65;14.98;;;;;;;-0.84;55.42;99744.44;5181632;28;20117;-68
2022/03/09 01:22:36;;;;;;;30.55;14.20;;;;;;;-0.55;54.49;99751.22;5180556;28;20053;-67
2022/03/09 01:25:26;;;;;;;28.90;13.13;;;;;;;-0.98;54.79;99732.75;5180609;28;20490;-67
2022/03/09 01:28:17;;;;;;;31.65;13.85;;;;;;;-0.99;53.58;99746.66;5159998;28;20058;-67
2022/03/09 01:31:09;;;;;;;32.20;13.93;;;;;;;-1.05;54.50;99741.66;5165782;28;20111;-67
2022/03/09 01:33:59;;;;;;;32.33;13.88;;;;;;;-1.01;53.45;99747.63;5152706;28;20069;-67
2022/03/09 01:36:49;;;;;;;26.02;12.60;;;;;;;-1.33;54.95;99738.28;5159802;28;20523;-67
2022/03/09 01:39:39;;;;;;;34.08;13.32;;;;;;;-1.22;55.44;99754.41;5181192;28;20061;-67
2022/03/09 01:42:29;;;;;;;32.10;14.45;;;;;;;-1.37;58.42;99758.34;5157297;28;20157;-67
2022/03/09 01:45:20;;;;;;;33.67;13.32;;;;;;;-1.05;57.72;99756.44;5173871;28;20104;-67
2022/03/09 01:48:11;;;;;;;33.53;14.45;;;;;;;-0.99;56.67;99754.47;5188621;28;20065;-67
2022/03/09 01:51:01;;;;;;;32.10;14.25;;;;;;;-0.77;56.64;99744.16;5181880;28;20050;-67
2022/03/09 01:53:52;;;;;;;33.50;14.50;;;;;;;-0.81;54.53;99746.94;5182222;28;20120;-68
2022/03/09 01:56:43;;;;;;;32.58;13.38;;;;;;;-0.81;54.18;99734.75;5174686;28;20422;-67
2022/03/09 01:59:34;;;;;;;30.65;13.50;;;;;;;-0.95;53.80;99739.59;5174534;28;20113;-67
2022/03/09 02:02:24;;;;;;;30.48;12.60;;;;;;;-0.66;53.97;99733.38;5173672;28;20065;-67
2022/03/09 02:05:17;;;;;;;30.70;13.18;;;;;;;-1.05;53.98;99720.00;5167682;28;20475;-67
2022/03/09 02:11:17;;;;;;;30.63;12.75;;;;;;;-1.07;54.82;99738.25;5160716;28;20143;-67
2022/03/09 02:14:28;;;;;;;28.83;12.63;;;;;;;-1.09;54.39;99729.66;5164516;28;20181;-67
2022/03/09 02:17:26;;;;;;;28.13;12.45;;;;;;;-1.03;54.98;99718.19;5161741;28;20058;-67
2022/03/09 02:20:16;;;;;;;27.63;11.60;;;;;;;-0.16;51.47;99724.59;5160727;28;20135;-67
2022/03/09 02:23:07;;;;;;;30.50;13.30;;;;;;;-0.73;53.20;99721.44;5179421;28;20451;-68
2022/03/09 02:25:57;;;;;;;32.95;12.35;;;;;;;-0.76;53.25;99716.38;5158670;28;20050;-67
2022/03/09 02:28:48;;;;;;;28.80;11.73;;;;;;;-0.91;54.14;99716.91;5176707;28;20050;-67
2022/03/09 02:31:37;;;;;;;25.25;12.20;;;;;;;-1.23;54.84;99718.88;5183884;28;20099;-67
2022/03/09 02:34:29;;;;;;;24.60;11.55;;;;;;;-1.23;54.32;99705.84;5181664;28;20160;-67
2022/03/09 02:37:19;;;;;;;27.88;12.05;;;;;;;-1.06;53.91;99715.69;5158660;28;20448;-68
2022/03/09 02:40:12;;;;;;;30.15;12.18;;;;;;;-1.24;54.34;99710.22;5163517;28;20070;-67
2022/03/09 02:43:02;;;;;;;21.67;10.83;;;;;;;-1.45;54.44;99722.19;5164600;28;20188;-67
2022/03/09 02:45:53;;;;;;;23.77;11.43;;;;;;;-1.49;54.55;99722.31;5174133;28;20168;-67
2022/03/09 02:48:45;;;;;;;25.80;12.23;;;;;;;-1.64;55.99;99707.25;5184049;28;20046;-67
2022/03/09 02:51:34;;;;;;;26.73;11.68;;;;;;;-1.38;55.06;99707.22;5183584;28;20054;-67
2022/03/09 02:54:25;;;;;;;33.15;13.13;;;;;;;-1.33;54.69;99720.91;5191426;28;20047;-67
2022/03/09 02:57:15;;;;;;;24.02;11.38;;;;;;;-1.64;55.02;99715.06;5159647;28;20129;-67
2022/03/09 03:00:09;;;;;;;30.40;12.10;;;;;;;-1.82;55.50;99680.94;5164184;28;20065;-67
2022/03/09 03:02:59;;;;;;;25.88;11.95;;;;;;;-1.57;55.84;99711.34;5160801;28;20069;-67
2022/03/09 03:05:49;;;;;;;27.63;11.93;;;;;;;-1.61;55.73;99710.59;5162873;28;20061;-67
2022/03/09 03:08:40;;;;;;;29.98;12.38;;;;;;;-1.37;55.27;99716.72;5159711;28;20495;-67
2022/03/09 03:11:31;;;;;;;30.35;12.85;;;;;;;-1.25;55.85;99715.47;5176330;28;20132;-67
2022/03/09 03:14:21;;;;;;;31.85;12.55;;;;;;;-1.37;54.86;99702.88;5163599;28;20050;-67
2022/03/09 03:17:11;;;;;;;29.77;12.15;;;;;;;-1.68;55.39;99694.34;5163613;28;20130;-67
2022/03/09 03:20:03;;;;;;;37.92;11.98;;;;;;;-1.45;55.90;99706.59;5184201;28;20081;-67
2022/03/09 03:22:53;;;;;;;32.65;12.88;;;;;;;-1.14;54.45;99725.53;5185530;28;20161;-67
2022/03/09 03:25:43;;;;;;;26.77;12.07;;;;;;;-1.50;54.52;99734.50;5170369;28;20089;-67
2022/03/09 03:28:33;;;;;;;25.85;11.65;;;;;;;-1.72;54.81;99736.09;5160606;28;20094;-67
2022/03/09 03:31:23;;;;;;;29.70;12.07;;;;;;;-1.91;55.83;99721.06;5182637;28;20072;-67
2022/03/09 03:34:13;;;;;;;27.50;13.00;;;;;;;-1.66;56.62;99733.28;5178545;28;20069;-66
2022/03/09 03:37:04;;;;;;;28.70;13.13;;;;;;;-1.66;56.49;99743.69;5174714;28;20053;-67
2022/03/09 03:39:54;;;;;;;31.08;13.45;;;;;;;-1.78;57.12;99734.53;5167965;28;20137;-67
2022/03/09 03:42:44;;;;;;;36.55;13.55;;;;;;;-2.05;58.96;99714.59;5170160;28;20049;-67
2022/03/09 03:45:34;;;;;;;31.42;13.18;;;;;;;-1.80;58.01;99741.53;5171918;28;20100;-67
2022/03/09 03:48:24;;;;;;;31.95;13.98;;;;;;;-1.67;58.25;99742.84;5174325;28;20088;-66
2022/03/09 03:51:15;;;;;;;32.85;13.23;;;;;;;-1.91;57.82;99735.81;5181757;28;20073;-67
2022/03/09 03:54:05;;;;;;;34.97;13.60;;;;;;;-1.94;57.21;99756.69;5188772;28;20069;-67
2022/03/09 03:56:55;;;;;;;31.10;13.77;;;;;;;-1.92;59.06;99747.97;5150144;28;20145;-67
2022/03/09 03:59:45;;;;;;;31.70;14.23;;;;;;;-1.65;59.05;99761.00;5169602;28;20046;-67
2022/03/09 04:02:36;;;;;;;35.85;13.35;;;;;;;-1.15;57.39;99755.91;5188559;28;20107;-67
2022/03/09 04:05:27;;;;;;;30.25;13.15;;;;;;;-1.58;57.33;99753.84;5170336;28;20211;-67
2022/03/09 04:08:17;;;;;;;29.92;12.10;;;;;;;-1.63;56.24;99755.75;5170100;28;20069;-67
2022/03/09 04:11:07;;;;;;;30.50;12.85;;;;;;;-2.05;57.61;99751.84;5175247;28;20142;-67
2022/03/09 04:13:59;;;;;;;30.77;13.93;;;;;;;-2.73;60.47;99757.25;5174857;28;20054;-67
2022/03/09 04:16:49;;;;;;;34.55;14.18;;;;;;;-2.42;60.79;99767.63;5162127;28;20583;-67
2022/03/09 04:19:40;;;;;;;36.00;14.38;;;;;;;-2.19;59.54;99753.97;5161087;28;20140;-67
2022/03/09 04:22:29;;;;;;;31.63;14.38;;;;;;;-2.00;59.27;99762.09;5161339;28;20073;-67
2022/03/09 04:25:20;;;;;;;30.85;14.18;;;;;;;-1.93;58.08;99761.84;5164151;28;20052;-67
2022/03/09 04:28:11;;;;;;;29.38;12.93;;;;;;;-1.57;57.21;99748.59;5169053;28;20536;-67
2022/03/09 04:31:03;;;;;;;29.70;13.63;;;;;;;-1.75;57.34;99757.00;5162212;28;20066;-67
2022/03/09 04:33:53;;;;;;;38.22;13.23;;;;;;;-1.98;56.92;99752.50;5156225;28;20088;-67
2022/03/09 04:36:43;;;;;;;27.08;13.20;;;;;;;-1.93;57.15;99759.25;5171990;28;20053;-67
2022/03/09 04:39:33;;;;;;;31.42;14.45;;;;;;;-1.99;57.10;99742.97;5162859;28;20782;-68
2022/03/09 04:42:24;;;;;;;33.35;13.20;;;;;;;-1.75;57.56;99754.41;5168164;28;20054;-67
2022/03/09 04:45:14;;;;;;;32.67;12.77;;;;;;;-1.74;56.92;99749.13;5166906;28;20046;-67
2022/03/09 04:48:04;;;;;;;27.75;13.10;;;;;;;-1.50;56.32;99749.25;5169253;28;20054;-67
2022/03/09 04:50:55;;;;;;;30.65;13.23;;;;;;;-1.67;58.17;99742.00;5185562;28;20506;-67
2022/03/09 04:53:44;;;;;;;33.05;13.82;;;;;;;-1.72;58.38;99756.91;5159930;28;20101;-67
2022/03/09 04:56:37;;;;;;;32.85;13.23;;;;;;;-2.18;58.46;99719.34;5170439;28;20649;-67
2022/03/09 04:59:27;;;;;;;30.77;12.35;;;;;;;-1.93;57.71;99769.63;5168665;28;20073;-68
2022/03/09 05:02:17;;;;;;;36.55;13.15;;;;;;;-1.88;56.81;99766.06;5179123;28;20188;-67
2022/03/09 05:05:07;;;;;;;32.65;13.18;;;;;;;-2.25;57.22;99743.75;5168609;28;20049;-67
2022/03/09 05:07:57;;;;;;;31.75;13.07;;;;;;;-2.39;58.22;99759.75;5167138;28;20050;-68
2022/03/09 05:10:47;;;;;;;34.60;12.88;;;;;;;-2.37;58.48;99766.63;5171146;28;20504;-69
2022/03/09 05:13:38;;;;;;;33.08;12.90;;;;;;;-2.16;58.20;99756.47;5158480;28;20046;-68
2022/03/09 05:16:28;;;;;;;38.42;13.55;;;;;;;-2.30;58.14;99756.91;5174655;28;20533;-68
2022/03/09 05:19:19;;;;;;;28.73;13.50;;;;;;;-2.30;58.07;99751.69;5165989;28;20057;-66
2022/03/09 05:22:09;;;;;;;32.40;12.70;;;;;;;-2.15;58.04;99766.84;5179729;28;20070;-66
2022/03/09 05:25:08;;;;;;;29.42;12.23;;;;;;;-1.97;57.42;99775.00;5160122;28;20689;-67
2022/03/09 05:28:01;;;;;;;27.02;12.02;;;;;;;-1.93;56.83;99772.25;5174282;28;20070;-68
2022/03/09 05:30:51;;;;;;;27.77;12.00;;;;;;;-2.17;57.05;99770.38;5177268;28;20148;-67
2022/03/09 05:33:41;;;;;;;30.65;12.38;;;;;;;-2.20;57.93;99757.47;5168438;28;20516;-66
2022/03/09 05:36:31;;;;;;;29.15;12.50;;;;;;;-2.15;57.62;99771.19;5163508;28;20089;-67
2022/03/09 05:39:22;;;;;;;34.67;14.27;;;;;;;-2.46;59.67;99772.06;5176177;28;20149;-67
2022/03/09 05:42:12;;;;;;;34.13;12.98;;;;;;;-2.06;57.77;99786.50;5161292;28;20590;-66
2022/03/09 05:45:05;;;;;;;27.35;12.32;;;;;;;-2.20;57.57;99786.06;5169488;28;20592;-66
2022/03/09 05:48:10;;;;;;;33.45;12.80;;;;;;;-2.19;58.70;99798.16;5169272;28;20555;-67
2022/03/09 05:51:00;;;;;;;36.85;13.15;;;;;;;-2.27;57.93;99780.19;5181596;28;20060;-67
2022/03/09 05:53:50;;;;;;;28.77;12.73;;;;;;;-2.36;58.30;99796.03;5174761;28;20050;-68
2022/03/09 05:56:41;;;;;;;28.45;11.80;;;;;;;-2.56;58.70;99799.19;5170897;28;20054;-67
2022/03/09 05:59:32;;;;;;;33.17;14.15;;;;;;;-2.64;59.87;99796.81;5152066;28;20154;-67
2022/03/09 06:02:22;;;;;;;37.53;14.73;;;;;;;-2.54;60.85;99771.44;5177232;28;20491;-67
2022/03/09 06:05:12;;;;;;;35.13;15.18;;;;;;;-2.72;62.10;99809.13;5165939;28;20412;-68
2022/03/09 06:08:03;;;;;;;33.47;14.35;;;;;;;-2.47;62.75;99809.31;5183673;28;20050;-67
2022/03/09 06:10:53;;;;;;;32.00;14.95;;;;;;;-2.31;60.78;99814.94;5162549;28;20184;-68
2022/03/09 06:13:43;;;;;;;40.75;13.85;;;;;;;-2.38;59.83;99821.22;5157620;28;20433;-67
2022/03/09 06:16:33;;;;;;;35.75;13.32;;;;;;;-2.53;59.42;99780.06;5173875;28;20453;-67
2022/03/09 06:19:24;;;;;;;35.08;13.88;;;;;;;-2.34;60.39;99807.25;5179536;28;20571;-67
2022/03/09 06:22:14;;;;;;;37.92;14.23;;;;;;;-2.30;59.02;99814.03;5181375;28;20046;-67
2022/03/09 06:25:05;;;;;;;40.15;15.10;;;;;;;-2.43;60.25;99823.91;5167427;28;20125;-67
2022/03/09 06:27:56;;;;;;;43.22;15.13;;;;;;;-2.56;61.39;99817.34;5173893;28;20144;-67
2022/03/09 06:30:50;;;;;;;39.95;15.25;;;;;;;-2.26;61.70;99822.59;5164772;28;20104;-67
2022/03/09 06:33:40;;;;;;;41.03;15.57;;;;;;;-2.15;60.81;99825.75;5170511;28;20644;-68
2022/03/09 06:36:30;;;;;;;41.92;15.27;;;;;;;-2.00;61.31;99830.50;5165455;28;20432;-67
2022/03/09 06:39:20;;;;;;;39.95;14.27;;;;;;;-1.71;59.65;99834.84;5176145;28;20519;-67
2022/03/09 06:42:14;;;;;;;29.27;13.82;;;;;;;-1.31;58.41;99837.97;5162268;28;20413;-68
2022/03/09 06:45:05;;;;;;;38.92;13.15;;;;;;;-1.25;57.07;99840.38;5168777;28;20180;-66
2022/03/09 06:47:56;;;;;;;35.03;12.88;;;;;;;-1.11;57.13;99830.38;5154087;28;20057;-68
2022/03/09 06:50:46;;;;;;;33.83;13.70;;;;;;;-0.95;56.69;99838.53;5159687;28;20429;-68
2022/03/09 06:53:38;;;;;;;33.40;12.55;;;;;;;-0.80;55.57;99829.34;5171592;28;20042;-68
2022/03/09 06:56:30;;;;;;;33.25;11.70;;;;;;;-0.41;54.84;99842.75;5163686;28;20046;-67
2022/03/09 06:59:20;;;;;;;30.58;11.52;;;;;;;0.36;53.97;99835.53;5190499;28;20058;-67
2022/03/09 07:02:10;;;;;;;25.67;10.57;;;;;;;1.43;50.99;99850.41;5160352;28;20374;-67
2022/03/09 07:05:01;;;;;;;23.27;11.25;;;;;;;2.52;48.55;99847.22;5171459;28;20057;-66
2022/03/09 07:07:51;;;;;;;25.63;11.00;;;;;;;2.99;47.18;99849.34;5168413;28;20553;-66
2022/03/09 07:10:41;;;;;;;25.75;11.07;;;;;;;2.76;47.68;99857.47;5168444;28;20073;-65
2022/03/09 07:13:32;;;;;;;23.25;10.68;;;;;;;2.00;49.57;99867.94;5163026;28;20054;-66
2022/03/09 07:16:22;;;;;;;28.48;11.15;;;;;;;2.32;49.09;99869.09;5175721;28;20068;-66
2022/03/09 07:19:15;;;;;;;28.80;12.07;;;;;;;2.35;49.27;99873.31;5159760;28;20046;-65
2022/03/09 07:22:06;;;;;;;25.58;10.75;;;;;;;2.39;47.85;99846.09;5181399;28;20104;-65
2022/03/09 07:24:56;;;;;;;21.05;10.63;;;;;;;1.72;49.01;99849.13;5186460;28;20512;-66
2022/03/09 07:27:46;;;;;;;26.48;11.02;;;;;;;1.51;50.71;99864.84;5180051;28;20586;-67
2022/03/09 07:30:36;;;;;;;20.30;10.27;;;;;;;2.25;50.19;99872.91;5165126;28;20375;-68
2022/03/09 07:33:26;;;;;;;33.28;10.00;;;;;;;2.21;49.27;99855.63;5180318;28;20658;-66
2022/03/09 07:36:16;;;;;;;24.40;10.20;;;;;;;3.32;46.96;99869.56;5164538;28;20089;-67
2022/03/09 07:39:07;;;;;;;29.27;10.48;;;;;;;4.14;44.77;99861.81;5191772;28;20081;-67
2022/03/09 07:42:03;;;;;;;31.67;10.05;;;;;;;5.00;44.20;99871.97;5167158;28;20050;-68
2022/03/09 07:44:53;;;;;;;23.75;9.35;;;;;;;5.23;43.06;99862.78;5162377;28;20521;-69
2022/03/09 07:47:43;;;;;;;28.08;10.30;;;;;;;5.33;42.14;99882.34;5159994;28;20065;-67
2022/03/09 07:50:34;;;;;;;20.10;10.52;;;;;;;5.86;41.24;99879.22;5177826;28;20341;-67
2022/03/09 07:53:25;;;;;;;32.63;10.77;;;;;;;6.04;40.06;99879.06;5180550;28;20112;-69
2022/03/09 07:56:15;;;;;;;21.30;10.10;;;;;;;5.94;40.13;99870.88;5174767;28;20048;-68
2022/03/09 07:59:08;;;;;;;17.85;9.95;;;;;;;6.81;39.93;99885.66;5190738;28;20077;-68
2022/03/09 08:01:59;;;;;;;20.77;10.48;;;;;;;6.77;39.20;99876.25;5161007;28;20092;-68
2022/03/09 08:04:49;;;;;;;19.70;10.00;;;;;;;6.93;38.92;99879.59;5172724;28;20053;-68
2022/03/09 08:07:39;;;;;;;20.33;10.63;;;;;;;7.95;38.33;99874.56;5182910;28;20073;-68
2022/03/09 08:10:30;;;;;;;25.77;10.23;;;;;;;8.77;35.80;99876.78;5176534;28;20064;-69
2022/03/09 08:13:24;;;;;;;20.48;10.55;;;;;;;7.59;36.88;99880.53;5166389;28;20417;-69
2022/03/09 08:16:14;;;;;;;15.20;8.10;;;;;;;8.75;37.36;99855.75;5161835;28;20053;-68
2022/03/09 08:19:05;;;;;;;19.25;10.68;;;;;;;9.41;35.98;99841.13;5170587;28;20673;-68
2022/03/09 08:21:58;;;;;;;20.00;10.13;;;;;;;9.43;35.22;99859.53;5174186;28;20427;-68
2022/03/09 08:24:49;;;;;;;19.25;10.48;;;;;;;9.94;33.64;99874.25;5172274;28;20092;-68
2022/03/09 08:27:39;;;;;;;20.42;10.50;;;;;;;8.76;35.06;99870.66;5166742;28;20108;-68
2022/03/09 08:30:30;;;;;;;25.52;10.27;;;;;;;9.05;35.57;99847.38;5166383;28;20050;-68
2022/03/09 08:33:21;;;;;;;20.83;10.18;;;;;;;9.84;34.83;99861.69;5176948;28;20057;-68
2022/03/09 08:36:11;;;;;;;20.35;10.07;;;;;;;9.47;34.04;99860.13;5167905;28;20056;-69
2022/03/09 08:39:02;;;;;;;32.60;11.25;;;;;;;10.63;32.66;99858.22;5174676;28;20416;-68
2022/03/09 08:41:52;;;;;;;16.63;10.10;;;;;;;10.29;32.30;99848.50;5173858;28;20065;-69
2022/03/09 08:44:59;;;;;;;26.30;10.65;;;;;;;10.86;31.74;99853.72;5167404;28;20093;-68
2022/03/09 08:47:49;;;;;;;23.77;9.73;;;;;;;10.61;31.94;99842.44;5160208;28;20105;-69
2022/03/09 08:50:42;;;;;;;24.23;10.10;;;;;;;11.35;32.14;99855.84;5171620;28;20137;-69
2022/03/09 08:53:34;;;;;;;20.88;10.50;;;;;;;12.42;29.64;99854.69;5169507;28;20438;-68
2022/03/09 08:56:27;;;;;;;21.27;9.63;;;;;;;12.43;29.72;99843.06;5160602;28;20077;-69
2022/03/09 08:59:18;;;;;;;19.30;10.00;;;;;;;12.52;29.90;99849.41;5162572;28;20057;-69
2022/03/09 09:02:08;;;;;;;17.13;9.52;;;;;;;12.50;31.14;99853.16;5166437;28;20050;-70
2022/03/09 09:04:59;;;;;;;19.80;10.10;;;;;;;12.43;31.79;99827.09;5172600;28;20057;-69
2022/03/09 09:07:50;;;;;;;21.75;10.70;;;;;;;12.86;30.31;99835.75;5163302;28;20050;-69
2022/03/09 09:10:40;;;;;;;22.33;10.43;;;;;;;13.12;28.13;99817.41;5174520;28;20060;-68
2022/03/09 09:13:32;;;;;;;17.75;9.93;;;;;;;13.06;28.88;99823.28;5158762;28;20061;-68
2022/03/09 09:16:22;;;;;;;21.73;10.80;;;;;;;13.22;29.05;99828.06;5181843;23;20275;-65
2022/03/09 09:19:13;;;;;;;17.95;10.63;;;;;;;13.46;29.63;99840.97;5201284;28;20064;-66
2022/03/09 09:22:07;;;;;;;18.75;10.63;;;;;;;13.63;29.81;99834.91;5205210;28;20106;-66
2022/03/09 09:25:01;;;;;;;18.88;11.38;;;;;;;13.39;27.17;99825.56;5205917;28;20085;-66
2022/03/09 09:27:53;;;;;;;23.45;11.07;;;;;;;13.86;27.99;99828.28;5195871;28;20057;-66
2022/03/09 09:30:43;;;;;;;24.65;10.38;;;;;;;14.06;27.40;99833.56;5183045;28;20491;-66
2022/03/09 09:33:33;;;;;;;20.58;11.32;;;;;;;15.06;25.42;99819.41;5192222;28;20514;-66
2022/03/09 09:36:23;;;;;;;18.75;10.68;;;;;;;14.76;25.04;99824.09;5181648;28;20050;-66
2022/03/09 09:39:14;;;;;;;18.25;10.70;;;;;;;12.78;27.91;99831.13;5184774;28;20071;-66
2022/03/09 09:42:05;;;;;;;26.35;11.88;;;;;;;13.83;27.51;99835.72;5197828;28;20054;-66
2022/03/09 09:44:56;;;;;;;22.17;11.40;;;;;;;14.39;27.00;99818.81;5188511;28;20057;-66
2022/03/09 09:47:46;;;;;;;22.23;12.55;;;;;;;13.17;27.83;99821.31;5198893;28;20072;-64
2022/03/09 09:50:37;;;;;;;22.50;11.52;;;;;;;13.78;26.05;99820.19;5194620;28;20056;-66
2022/03/09 09:53:28;;;;;;;22.67;11.55;;;;;;;14.48;27.04;99825.94;5185557;28;20324;-66
2022/03/09 09:56:18;;;;;;;22.35;12.00;;;;;;;15.25;26.12;99813.06;5197929;28;20332;-66
2022/03/09 09:59:09;;;;;;;27.92;11.65;;;;;;;14.10;25.86;99825.13;5185199;28;20077;-66
2022/03/09 10:02:00;;;;;;;23.48;12.43;;;;;;;14.54;25.59;99817.38;5190711;28;20513;-66
2022/03/09 10:04:51;;;;;;;21.52;11.70;;;;;;;14.43;26.27;99820.19;5184756;28;20060;-66
2022/03/09 10:08:03;;;;;;;22.27;11.32;;;;;;;13.56;26.53;99824.00;5189808;28;20123;-66
2022/03/09 10:10:59;;;;;;;21.60;11.60;;;;;;;14.19;26.21;99827.91;5199527;28;20088;-66
2022/03/09 10:13:50;;;;;;;20.13;11.82;;;;;;;14.31;27.01;99824.06;5198785;28;20163;-66
2022/03/09 10:17:00;;;;;;;19.45;12.10;;;;;;;14.27;26.55;99830.66;5183315;28;20112;-66
2022/03/09 10:19:55;;;;;;;22.00;12.55;;;;;;;13.38;26.55;99825.72;5200153;28;20132;-66
2022/03/09 10:22:45;;;;;;;21.50;12.25;;;;;;;13.74;27.64;99836.59;5185022;28;20497;-66
2022/03/09 10:25:43;;;;;;;18.55;11.77;;;;;;;14.91;25.99;99831.63;5188964;28;20167;-66
2022/03/09 10:28:41;;;;;;;25.77;13.05;;;;;;;15.28;25.58;99826.13;5185926;28;20073;-66
2022/03/09 10:31:33;;;;;;;22.60;12.15;;;;;;;14.30;27.47;99822.34;5190670;28;20056;-66
2022/03/09 10:34:27;;;;;;;24.98;12.98;;;;;;;13.12;27.54;99818.25;5185802;28;20053;-66
2022/03/09 10:37:17;;;;;;;22.50;12.95;;;;;;;14.75;26.58;99826.94;5183674;28;20053;-66
2022/03/09 10:40:12;;;;;;;22.17;12.73;;;;;;;14.30;27.04;99825.91;5184123;28;20152;-66
2022/03/09 10:43:11;;;;;;;23.30;12.60;;;;;;;14.38;27.20;99834.97;5196542;28;20070;-66
2022/03/09 10:46:12;;;;;;;26.45;13.35;;;;;;;14.68;27.14;99836.53;5178706;28;20049;-66
2022/03/09 10:49:03;;;;;;;21.50;13.15;;;;;;;14.23;26.18;99834.63;5183425;28;20072;-66
2022/03/09 10:51:53;;;;;;;30.80;13.73;;;;;;;13.11;27.59;99832.56;5190680;28;20503;-66
2022/03/09 10:54:43;;;;;;;26.73;14.23;;;;;;;13.58;28.77;99829.19;5182112;28;20068;-66
2022/03/09 10:57:33;;;;;;;26.95;14.50;;;;;;;13.59;27.92;99837.03;5194583;28;20518;-66
2022/03/09 11:00:57;;;;;;;30.85;14.27;;;;;;;14.03;28.58;99833.84;5190141;28;20195;-66
2022/03/09 11:03:47;;;;;;;32.93;14.53;;;;;;;14.36;27.52;99842.28;5191687;28;20136;-66
2022/03/09 11:06:42;;;;;;;20.80;13.45;;;;;;;13.37;27.11;99829.34;5193863;28;20300;-66
2022/03/09 11:09:37;;;;;;;26.45;14.88;;;;;;;13.48;26.91;99837.19;5183683;28;20053;-66
2022/03/09 11:12:28;;;;;;;28.27;14.82;;;;;;;13.92;28.89;99836.69;5190879;28;20049;-66
2022/03/09 11:15:20;;;;;;;27.80;14.52;;;;;;;14.31;26.79;99827.56;5191739;28;20049;-66
2022/03/09 11:18:18;;;;;;;34.00;14.30;;;;;;;14.03;27.81;99824.00;5181035;28;20054;-66
2022/03/09 11:21:09;;;;;;;24.30;13.85;;;;;;;13.57;26.85;99833.66;5182994;28;20093;-66
2022/03/09 11:24:00;;;;;;;24.83;13.45;;;;;;;13.35;27.86;99823.34;5184948;28;20061;-66
2022/03/09 11:27:02;;;;;;;24.88;14.35;;;;;;;13.59;29.83;99820.22;5181605;28;20077;-66
2022/03/09 11:29:55;;;;;;;30.17;13.45;;;;;;;13.38;28.67;99817.72;5183980;28;20068;-66
2022/03/09 11:32:46;;;;;;;24.60;13.95;;;;;;;13.65;25.60;99802.81;5171873;28;20046;-67
2022/03/09 11:35:39;;;;;;;29.30;14.90;;;;;;;13.22;26.66;99814.75;5174759;28;20049;-66
2022/03/09 11:38:32;;;;;;;26.52;15.15;;;;;;;11.45;27.19;99816.06;5187506;28;20070;-66
2022/03/09 11:41:27;;;;;;;24.70;14.60;;;;;;;12.08;28.68;99814.22;5180456;28;20053;-66
2022/03/09 11:44:28;;;;;;;23.50;13.68;;;;;;;13.10;25.26;99803.38;5193839;28;20106;-66
2022/03/09 11:47:19;;;;;;;28.30;14.27;;;;;;;13.41;26.88;99806.78;5182250;28;20131;-66
2022/03/09 11:50:09;;;;;;;24.70;14.10;;;;;;;13.73;27.58;99798.44;5183877;28;20126;-66
2022/03/09 11:53:07;;;;;;;19.70;13.35;;;;;;;12.89;25.66;99799.03;5188625;28;20060;-66
2022/03/09 11:56:37;;;;;;;25.83;14.63;;;;;;;12.97;26.00;99795.69;5196954;28;20132;-66
2022/03/09 11:59:29;;;;;;;24.00;13.05;;;;;;;13.28;26.10;99783.09;5180938;28;20058;-66
2022/03/09 12:02:19;;;;;;;22.08;12.68;;;;;;;13.01;25.43;99794.41;5177961;28;20128;-66
2022/03/09 12:05:25;;;;;;;25.00;13.57;;;;;;;13.23;25.97;99789.78;5178527;28;20187;-67
2022/03/09 12:08:15;;;;;;;22.23;12.52;;;;;;;13.35;26.44;99788.72;5194360;28;20053;-66
2022/03/09 12:11:05;;;;;;;23.55;13.57;;;;;;;12.55;25.61;99785.28;5188782;28;20060;-67
2022/03/09 12:13:56;;;;;;;31.10;13.85;;;;;;;12.73;27.70;99781.94;5178228;28;20512;-67
2022/03/09 12:16:59;;;;;;;22.10;13.18;;;;;;;13.22;26.03;99772.16;5179783;28;20431;-67
2022/03/09 12:20:12;;;;;;;25.93;14.43;;;;;;;13.37;26.62;99776.91;5183032;28;20056;-66
2022/03/09 12:23:04;;;;;;;26.13;14.32;;;;;;;13.31;26.79;99779.28;5184858;28;20063;-66
2022/03/09 12:25:56;;;;;;;23.42;13.23;;;;;;;13.68;26.69;99774.06;5183729;28;20074;-66
2022/03/09 12:28:46;;;;;;;26.00;13.70;;;;;;;13.76;27.56;99763.50;5178361;28;20046;-67
2022/03/09 12:31:37;;;;;;;24.90;13.75;;;;;;;13.82;25.64;99770.06;5177477;28;20424;-66
2022/03/09 12:34:35;;;;;;;23.42;13.98;;;;;;;13.68;26.74;99760.72;5182887;28;20050;-65
2022/03/09 12:37:25;;;;;;;23.65;14.05;;;;;;;13.12;27.37;99762.34;5188753;28;20100;-66
2022/03/09 12:40:15;;;;;;;24.80;14.38;;;;;;;13.23;26.98;99749.84;5187427;28;20133;-65
2022/03/09 12:43:05;;;;;;;23.95;13.55;;;;;;;13.16;26.28;99750.41;5185222;28;20046;-65
2022/03/09 12:45:55;;;;;;;25.85;13.30;;;;;;;13.68;24.60;99743.91;5182684;28;20069;-66
2022/03/09 12:48:46;;;;;;;22.40;12.75;;;;;;;13.54;25.40;99743.38;5185350;28;20491;-66
2022/03/09 12:51:38;;;;;;;23.40;13.18;;;;;;;13.16;25.12;99745.09;5183928;28;20127;-65
2022/03/09 12:54:54;;;;;;;25.73;13.55;;;;;;;13.42;26.83;99757.00;5182786;28;20050;-66
2022/03/09 12:57:53;;;;;;;24.58;13.57;;;;;;;13.50;26.38;99741.97;5186155;28;20049;-65
2022/03/09 13:00:43;;;;;;;21.83;13.85;;;;;;;13.34;25.78;99753.25;5187210;28;20052;-66
2022/03/09 13:03:34;;;;;;;22.25;13.18;;;;;;;13.33;26.69;99746.22;5187235;28;20072;-65
2022/03/09 13:06:26;;;;;;;23.02;13.20;;;;;;;13.20;25.01;99745.66;5179642;28;20057;-67
2022/03/09 13:09:24;;;;;;;26.27;14.25;;;;;;;12.48;26.90;99748.72;5183887;28;20563;-66
2022/03/09 13:12:14;;;;;;;22.63;13.15;;;;;;;12.62;26.51;99751.00;5181711;28;20042;-67
2022/03/09 13:15:05;;;;;;;22.25;13.60;;;;;;;12.60;25.47;99751.09;5183781;28;20188;-66